Terminal Aerodrome Forecast
Issued by NWS

Home | Current Version | Previous Version | Text Only | Print | Product List | Glossary On
Versions: 1 2 3 4 5 6 7 8 9 10 11 12 13 14 15 16
515
FTUS43 KABR 292320
TAFATY
TAF
KATY 292320Z 3000/3024 06012KT P6SM BKN200
     FM300200 05008KT P6SM BKN200
     FM301300 04012KT P6SM OVC100
     FM301700 04016G26KT P6SM OVC080
     FM302000 04020G31KT P6SM -RA OVC040=

USA.gov is the U.S. government's official web portal to all federal, state and local government web resources and services.